SHMÚ vydal meteorologické výstrahy na Low temperaturesSnowdriftsSnowfall Display warnings

SHMÚ vydal hydrologické výstrahy na   Povodeň Display warnings

METAR

Aeronautical MET Report METAR

METAR description (Slovak)

16.01.2021 - 11:30 UTC

METAR LZIB 161130Z 31017KT 9999 FEW007 SCT022 BKN060 M02/M08 Q1021
R13/690495 NOSIG=
METAR LZKZ 161130Z 16004KT 9999 FEW046 SCT058 M04/M10 Q1016 NOSIG=
METAR LZPP 161130Z 32010KT 9999 SCT044 M02/M08 Q1020=
METAR LZTT 161130Z 26016KT 9999 -SN DRSN FEW020 BKN056 M06/M11 Q1013
NOSIG=
METAR LZZI 161130Z VRB02KT 9999 SCT026 BKN032 BKN046 M03/M09 Q1018=

16.01.2021 - 11:00 UTC

METAR LZIB 161100Z 31015KT 9999 FEW018 M02/M08 Q1022 R13/690495
NOSIG=
METAR LZKZ 161100Z 18004KT 150V210 9999 FEW032 BKN044 M04/M11 Q1017
NOSIG=
METAR LZPP 161100Z 32011KT 9999 FEW028 M02/M08 Q1021=
METAR LZTT 161100Z 25018KT 9999 -SN DRSN FEW020 BKN056 M06/M11 Q1013
NOSIG=
METAR LZZI 161100Z 24005KT 200V280 9999 SCT026 BKN073 M03/M08 Q1018=

Správy METAR z vojenských meteorologických staníc (MIL)
SHMÚ nezodpovedá za ich obsah.

16.01.2021 - 11:00 UTC

METAR LZSW 161100Z 34012KT 9999 SCT040 M02/M10 Q1017=

16.01.2021 - 11:00 UTC

METAR 161100Z
METAR LZMC 161100Z 31014KT 9999 SCT027 BKN060 M03/M09
Q1022=

16.01.2021 - 11:00 UTC

METAR 161100Z
METAR LZPW 161100Z 28006KT 8000 -SN SCT016 OVC040
M03/M08 Q1016=

16.01.2021 - 10:00 UTC

METAR LZSW 161000Z 02002KT 9999 FEW040 M02/M07 Q1018=

16.01.2021 - 10:00 UTC

METAR 161000Z
METAR LZMC 161000Z 30014KT 9999 SCT047 BKN110 M03/M09
Q1022=

16.01.2021 - 10:00 UTC

METAR 161000Z
METAR LZPW 161000Z 25008KT 9999 SCT016 BKN050 M05/M09
Q1016=

 

 

skok na menu ↑


skok na začiatok stránky ↑